Time,TemperatureF,DewpointF,PressureIn,WindDirection,WindDirectionDegrees,WindSpeedMPH,WindSpeedGustMPH,Humidity,HourlyPrecipIn,Conditions,Clouds,dailyrainin,SoftwareType,DateUTC
2013-01-14 00:03:00,25.5,10.3,30.13,North,10,2.0,3.0,52,0.00,,,0.00,VWS V14.01,2013-01-14 07:03:00,
2013-01-14 00:08:00,25.3,10.6,30.13,North,10,1.0,2.0,53,0.00,,,0.00,VWS V14.01,2013-01-14 07:08:00,
2013-01-14 00:13:00,25.1,10.8,30.13,North,10,0.0,2.0,54,0.00,,,0.00,VWS V14.01,2013-01-14 07:13:00,
2013-01-14 00:18:00,25.1,10.0,30.13,North,10,2.0,3.0,52,0.00,,,0.00,VWS V14.01,2013-01-14 07:18:00,
2013-01-14 00:23:00,25.1,10.0,30.13,North,10,3.0,4.0,52,0.00,,,0.00,VWS V14.01,2013-01-14 07:23:00,
2013-01-14 00:28:00,25.4,9.4,30.13,North,10,2.0,3.0,50,0.00,,,0.00,VWS V14.01,2013-01-14 07:28:00,
2013-01-14 00:33:00,25.9,9.4,30.14,North,10,2.0,4.0,49,0.00,,,0.00,VWS V14.01,2013-01-14 07:33:00,
2013-01-14 00:38:00,26.4,9.8,30.14,North,9,3.0,4.0,49,0.00,,,0.00,VWS V14.01,2013-01-14 07:38:00,
2013-01-14 00:43:00,26.7,10.1,30.14,North,5,0.0,3.0,49,0.00,,,0.00,VWS V14.01,2013-01-14 07:43:00,
2013-01-14 00:48:00,26.8,10.2,30.14,North,5,0.0,1.0,49,0.00,,,0.00,VWS V14.01,2013-01-14 07:48:00,
2013-01-14 00:53:00,26.8,10.7,30.14,North,5,1.0,1.0,50,0.00,,,0.00,VWS V14.01,2013-01-14 07:53:00,
2013-01-14 00:58:00,26.7,10.6,30.13,North,5,1.0,2.0,50,0.00,,,0.00,VWS V14.01,2013-01-14 07:58:00,
2013-01-14 01:03:00,26.7,11.0,30.13,North,5,0.0,1.0,51,0.00,,,0.00,VWS V14.01,2013-01-14 08:03:00,
2013-01-14 01:08:00,26.6,11.4,30.13,North,5,3.0,3.0,52,0.00,,,0.00,VWS V14.01,2013-01-14 08:08:00,
2013-01-14 01:13:00,26.3,11.5,30.14,North,5,2.0,3.0,53,0.00,,,0.00,VWS V14.01,2013-01-14 08:13:00,
2013-01-14 01:18:00,26.1,10.5,30.14,North,5,3.0,4.0,51,0.00,,,0.00,VWS V14.01,2013-01-14 08:18:00,
2013-01-14 01:23:00,26.2,10.6,30.14,North,5,0.0,0.0,51,0.00,,,0.00,VWS V14.01,2013-01-14 08:23:00,
2013-01-14 01:28:00,26.2,10.6,30.14,North,5,0.0,1.0,51,0.00,,,0.00,VWS V14.01,2013-01-14 08:28:00,
2013-01-14 01:33:00,26.2,11.0,30.14,North,5,2.0,3.0,52,0.00,,,0.00,VWS V14.01,2013-01-14 08:33:00,
2013-01-14 01:38:00,26.1,10.0,30.14,North,5,1.0,2.0,50,0.00,,,0.00,VWS V14.01,2013-01-14 08:38:00,
2013-01-14 01:43:00,26.0,10.4,30.15,North,5,2.0,4.0,51,0.00,,,0.00,VWS V14.01,2013-01-14 08:43:00,
2013-01-14 01:48:00,25.9,10.3,30.15,North,5,0.0,0.0,51,0.00,,,0.00,VWS V14.01,2013-01-14 08:48:00,
2013-01-14 01:53:00,25.9,10.3,30.15,North,5,1.0,3.0,51,0.00,,,0.00,VWS V14.01,2013-01-14 08:53:00,
2013-01-14 01:58:00,25.9,9.8,30.15,North,5,0.0,2.0,50,0.00,,,0.00,VWS V14.01,2013-01-14 08:58:00,
2013-01-14 02:03:00,26.0,9.5,30.15,North,5,0.0,2.0,49,0.00,,,0.00,VWS V14.01,2013-01-14 09:03:00,
2013-01-14 02:08:00,26.2,9.2,30.15,North,5,0.0,1.0,48,0.00,,,0.00,VWS V14.01,2013-01-14 09:08:00,
2013-01-14 02:13:00,26.3,9.3,30.15,North,5,0.0,0.0,48,0.00,,,0.00,VWS V14.01,2013-01-14 09:13:00,
2013-01-14 02:18:00,26.3,8.8,30.15,North,5,0.0,0.0,47,0.00,,,0.00,VWS V14.01,2013-01-14 09:18:00,
2013-01-14 02:23:00,26.3,9.8,30.15,North,5,0.0,0.0,49,0.00,,,0.00,VWS V14.01,2013-01-14 09:23:00,
2013-01-14 02:28:00,26.2,10.1,30.15,North,5,0.0,0.0,50,0.00,,,0.00,VWS V14.01,2013-01-14 09:28:00,
2013-01-14 02:33:00,26.1,9.1,30.15,North,5,0.0,0.0,48,0.00,,,0.00,VWS V14.01,2013-01-14 09:33:00,
2013-01-14 02:38:00,26.0,9.0,30.15,North,5,0.0,0.0,48,0.00,,,0.00,VWS V14.01,2013-01-14 09:38:00,
2013-01-14 02:43:00,25.9,9.4,30.15,North,5,0.0,0.0,49,0.00,,,0.00,VWS V14.01,2013-01-14 09:43:00,
2013-01-14 02:48:00,25.9,9.4,30.15,North,5,0.0,0.0,49,0.00,,,0.00,VWS V14.01,2013-01-14 09:48:00,
2013-01-14 02:53:00,25.8,9.3,30.16,North,5,0.0,0.0,49,0.00,,,0.00,VWS V14.01,2013-01-14 09:53:00,
2013-01-14 02:58:00,25.7,8.7,30.16,North,5,0.0,0.0,48,0.00,,,0.00,VWS V14.01,2013-01-14 09:58:00,
2013-01-14 03:03:00,25.7,8.3,30.16,North,5,0.0,0.0,47,0.00,,,0.00,VWS V14.01,2013-01-14 10:03:00,
2013-01-14 03:08:00,25.8,8.4,30.16,North,5,0.0,0.0,47,0.00,,,0.00,VWS V14.01,2013-01-14 10:08:00,
2013-01-14 03:13:00,25.9,8.5,30.16,North,5,0.0,0.0,47,0.00,,,0.00,VWS V14.01,2013-01-14 10:13:00,
2013-01-14 03:18:00,26.0,7.6,30.16,North,5,0.0,1.0,45,0.00,,,0.00,VWS V14.01,2013-01-14 10:18:00,
2013-01-14 03:23:00,26.1,7.7,30.16,North,5,0.0,0.0,45,0.00,,,0.00,VWS V14.01,2013-01-14 10:23:00,
2013-01-14 03:28:00,26.1,7.7,30.16,North,5,0.0,0.0,45,0.00,,,0.00,VWS V14.01,2013-01-14 10:28:00,
2013-01-14 03:33:00,26.2,7.3,30.16,North,5,0.0,1.0,44,0.00,,,0.00,VWS V14.01,2013-01-14 10:33:00,
2013-01-14 03:38:00,26.2,7.8,30.16,North,5,0.0,0.0,45,0.00,,,0.00,VWS V14.01,2013-01-14 10:38:00,
2013-01-14 03:43:00,26.2,7.8,30.16,North,5,0.0,0.0,45,0.00,,,0.00,VWS V14.01,2013-01-14 10:43:00,
2013-01-14 03:48:00,26.3,7.9,30.16,North,5,0.0,0.0,45,0.00,,,0.00,VWS V14.01,2013-01-14 10:48:00,
2013-01-14 03:53:00,26.2,8.7,30.16,North,5,0.0,0.0,47,0.00,,,0.00,VWS V14.01,2013-01-14 10:53:00,
2013-01-14 03:58:00,26.0,9.0,30.16,North,5,0.0,0.0,48,0.00,,,0.00,VWS V14.01,2013-01-14 10:58:00,
2013-01-14 04:03:00,25.2,8.7,30.16,North,5,3.0,4.0,49,0.00,,,0.00,VWS V14.01,2013-01-14 11:03:00,
2013-01-14 04:08:00,24.2,8.7,30.16,North,5,1.0,4.0,51,0.00,,,0.00,VWS V14.01,2013-01-14 11:08:00,
2013-01-14 04:13:00,23.8,8.3,30.15,North,5,2.0,3.0,51,0.00,,,0.00,VWS V14.01,2013-01-14 11:13:00,
2013-01-14 04:18:00,23.8,8.8,30.15,North,5,2.0,3.0,52,0.00,,,0.00,VWS V14.01,2013-01-14 11:18:00,
2013-01-14 04:23:00,23.8,8.8,30.15,North,5,1.0,3.0,52,0.00,,,0.00,VWS V14.01,2013-01-14 11:23:00,
2013-01-14 04:28:00,23.8,8.8,30.15,North,5,2.0,3.0,52,0.00,,,0.00,VWS V14.01,2013-01-14 11:28:00,
2013-01-14 04:33:00,23.7,8.7,30.15,North,5,2.0,3.0,52,0.00,,,0.00,VWS V14.01,2013-01-14 11:33:00,
2013-01-14 04:38:00,23.5,8.9,30.15,North,5,0.0,4.0,53,0.00,,,0.00,VWS V14.01,2013-01-14 11:38:00,
2013-01-14 04:43:00,23.3,8.7,30.16,North,5,1.0,2.0,53,0.00,,,0.00,VWS V14.01,2013-01-14 11:43:00,
2013-01-14 04:48:00,23.1,8.9,30.16,North,5,0.0,2.0,54,0.00,,,0.00,VWS V14.01,2013-01-14 11:48:00,
2013-01-14 04:53:00,22.9,8.8,30.16,North,5,1.0,1.0,54,0.00,,,0.00,VWS V14.01,2013-01-14 11:53:00,
2013-01-14 04:58:00,22.5,8.8,30.16,North,5,0.0,2.0,55,0.00,,,0.00,VWS V14.01,2013-01-14 11:58:00,
2013-01-14 05:03:00,22.1,8.4,30.16,North,5,0.0,1.0,55,0.00,,,0.00,VWS V14.01,2013-01-14 12:03:00,
2013-01-14 05:09:00,21.8,8.5,30.16,North,5,0.0,2.0,56,0.00,,,0.00,VWS V14.01,2013-01-14 12:09:00,
2013-01-14 05:14:00,21.4,8.6,30.16,North,5,0.0,1.0,57,0.00,,,0.00,VWS V14.01,2013-01-14 12:14:00,
2013-01-14 05:19:00,21.1,8.3,30.16,North,5,0.0,1.0,57,0.00,,,0.00,VWS V14.01,2013-01-14 12:19:00,
2013-01-14 05:24:00,20.7,8.3,30.16,North,5,1.0,1.0,58,0.00,,,0.00,VWS V14.01,2013-01-14 12:24:00,
2013-01-14 05:29:00,20.5,8.1,30.16,North,5,0.0,1.0,58,0.00,,,0.00,VWS V14.01,2013-01-14 12:29:00,
2013-01-14 05:34:00,20.3,8.3,30.16,North,5,0.0,0.0,59,0.00,,,0.00,VWS V14.01,2013-01-14 12:34:00,
2013-01-14 05:39:00,20.2,8.2,30.16,North,5,0.0,1.0,59,0.00,,,0.00,VWS V14.01,2013-01-14 12:39:00,
2013-01-14 05:44:00,20.0,8.0,30.16,North,5,1.0,2.0,59,0.00,,,0.00,VWS V14.01,2013-01-14 12:44:00,
2013-01-14 05:49:00,19.8,7.8,30.16,North,5,1.0,4.0,59,0.00,,,0.00,VWS V14.01,2013-01-14 12:49:00,
2013-01-14 05:54:00,19.7,7.7,30.16,North,5,2.0,3.0,59,0.00,,,0.00,VWS V14.01,2013-01-14 12:54:00,
2013-01-14 05:59:00,19.7,8.1,30.17,North,5,0.0,0.0,60,0.00,,,0.00,VWS V14.01,2013-01-14 12:59:00,
2013-01-14 06:04:00,19.7,8.1,30.17,North,5,0.0,1.0,60,0.00,,,0.00,VWS V14.01,2013-01-14 13:04:00,
2013-01-14 06:09:00,19.7,8.1,30.17,North,5,0.0,2.0,60,0.00,,,0.00,VWS V14.01,2013-01-14 13:09:00,
2013-01-14 06:14:00,19.7,8.1,30.17,North,5,1.0,2.0,60,0.00,,,0.00,VWS V14.01,2013-01-14 13:14:00,
2013-01-14 06:19:00,19.7,8.4,30.17,North,5,0.0,3.0,61,0.00,,,0.00,VWS V14.01,2013-01-14 13:19:00,
2013-01-14 06:24:00,19.8,8.5,30.17,North,5,2.0,2.0,61,0.00,,,0.00,VWS V14.01,2013-01-14 13:24:00,
2013-01-14 06:29:00,19.9,8.3,30.17,North,5,0.0,1.0,60,0.00,,,0.00,VWS V14.01,2013-01-14 13:29:00,
2013-01-14 06:34:00,20.0,8.7,30.17,North,5,0.0,1.0,61,0.00,,,0.00,VWS V14.01,2013-01-14 13:34:00,
2013-01-14 06:39:00,20.1,8.8,30.17,North,5,1.0,3.0,61,0.00,,,0.00,VWS V14.01,2013-01-14 13:39:00,
2013-01-14 06:44:00,20.3,9.0,30.17,North,5,2.0,3.0,61,0.00,,,0.00,VWS V14.01,2013-01-14 13:44:00,
2013-01-14 06:49:00,20.6,9.3,30.17,North,5,1.0,3.0,61,0.00,,,0.00,VWS V14.01,2013-01-14 13:49:00,
2013-01-14 06:54:00,20.9,8.5,30.18,North,5,0.0,1.0,58,0.00,,,0.00,VWS V14.01,2013-01-14 13:54:00,
2013-01-14 06:59:00,21.1,8.6,30.18,North,5,0.0,0.0,58,0.00,,,0.00,VWS V14.01,2013-01-14 13:59:00,
2013-01-14 07:04:00,21.1,8.3,30.18,North,5,0.0,1.0,57,0.00,,,0.00,VWS V14.01,2013-01-14 14:04:00,
2013-01-14 07:09:00,21.3,8.4,30.18,North,5,0.0,0.0,57,0.00,,,0.00,VWS V14.01,2013-01-14 14:09:00,
2013-01-14 07:14:00,21.5,8.6,30.18,North,5,0.0,0.0,57,0.00,,,0.00,VWS V14.01,2013-01-14 14:14:00,
2013-01-14 07:19:00,21.6,7.9,30.18,North,5,0.0,0.0,55,0.00,,,0.00,VWS V14.01,2013-01-14 14:19:00,
2013-01-14 07:24:00,21.7,8.0,30.18,North,5,0.0,0.0,55,0.00,,,0.00,VWS V14.01,2013-01-14 14:24:00,
2013-01-14 07:29:00,21.9,8.6,30.18,North,5,0.0,2.0,56,0.00,,,0.00,VWS V14.01,2013-01-14 14:29:00,
2013-01-14 07:34:00,22.0,8.7,30.19,North,5,0.0,0.0,56,0.00,,,0.00,VWS V14.01,2013-01-14 14:34:00,
2013-01-14 07:39:00,22.0,8.7,30.19,North,5,0.0,0.0,56,0.00,,,0.00,VWS V14.01,2013-01-14 14:39:00,
2013-01-14 07:44:00,22.2,9.3,30.19,North,5,0.0,0.0,57,0.00,,,0.00,VWS V14.01,2013-01-14 14:44:00,
2013-01-14 07:49:00,22.1,9.6,30.19,North,5,2.0,2.0,58,0.00,,,0.00,VWS V14.01,2013-01-14 14:49:00,
2013-01-14 07:54:00,22.0,9.9,30.19,North,5,2.0,2.0,59,0.00,,,0.00,VWS V14.01,2013-01-14 14:54:00,
2013-01-14 07:59:00,22.0,10.2,30.19,North,5,0.0,2.0,60,0.00,,,0.00,VWS V14.01,2013-01-14 14:59:00,
2013-01-14 08:04:00,22.0,10.2,30.19,North,5,1.0,2.0,60,0.00,,,0.00,VWS V14.01,2013-01-14 15:04:00,
2013-01-14 08:09:00,22.4,10.6,30.20,North,5,0.0,2.0,60,0.00,,,0.00,VWS V14.01,2013-01-14 15:09:00,
2013-01-14 08:14:00,22.9,11.1,30.20,North,5,0.0,1.0,60,0.00,,,0.00,VWS V14.01,2013-01-14 15:14:00,
2013-01-14 08:19:00,23.6,11.4,30.20,North,5,0.0,1.0,59,0.00,,,0.00,VWS V14.01,2013-01-14 15:19:00,
2013-01-14 08:24:00,24.3,11.7,30.20,North,5,0.0,1.0,58,0.00,,,0.00,VWS V14.01,2013-01-14 15:24:00,
2013-01-14 08:29:00,24.9,11.8,30.20,North,5,0.0,1.0,57,0.00,,,0.00,VWS V14.01,2013-01-14 15:29:00,
2013-01-14 08:34:00,25.5,11.6,30.20,North,5,0.0,0.0,55,0.00,,,0.00,VWS V14.01,2013-01-14 15:34:00,
2013-01-14 08:39:00,26.2,11.8,30.20,North,5,0.0,0.0,54,0.00,,,0.00,VWS V14.01,2013-01-14 15:39:00,
2013-01-14 08:44:00,27.0,11.7,30.21,North,5,0.0,0.0,52,0.00,,,0.00,VWS V14.01,2013-01-14 15:44:00,
2013-01-14 08:49:00,27.7,11.0,30.21,North,5,0.0,0.0,49,0.00,,,0.00,VWS V14.01,2013-01-14 15:49:00,
2013-01-14 08:54:00,28.6,10.5,30.21,North,5,0.0,0.0,46,0.00,,,0.00,VWS V14.01,2013-01-14 15:54:00,
2013-01-14 08:59:00,29.7,9.4,30.21,North,5,0.0,0.0,42,0.00,,,0.00,VWS V14.01,2013-01-14 15:59:00,
2013-01-14 09:04:00,31.0,9.5,30.21,North,5,0.0,0.0,40,0.00,,,0.00,VWS V14.01,2013-01-14 16:04:00,
2013-01-14 09:09:00,32.0,9.9,30.21,North,5,0.0,2.0,39,0.00,,,0.00,VWS V14.01,2013-01-14 16:09:00,
2013-01-14 09:14:00,33.0,9.0,30.21,North,5,0.0,1.0,36,0.00,,,0.00,VWS V14.01,2013-01-14 16:14:00,
2013-01-14 09:19:00,34.0,8.6,30.21,North,5,0.0,2.0,34,0.00,,,0.00,VWS V14.01,2013-01-14 16:19:00,
2013-01-14 09:24:00,35.0,8.8,30.21,NW,313,0.0,4.0,33,0.00,,,0.00,VWS V14.01,2013-01-14 16:24:00,
2013-01-14 09:29:00,35.5,8.6,30.22,NW,313,0.0,3.0,32,0.00,,,0.00,VWS V14.01,2013-01-14 16:29:00,
2013-01-14 09:34:00,36.1,6.9,30.22,WNW,300,2.0,5.0,29,0.00,,,0.00,VWS V14.01,2013-01-14 16:34:00,
2013-01-14 09:39:00,36.3,7.1,30.22,WNW,295,1.0,5.0,29,0.00,,,0.00,VWS V14.01,2013-01-14 16:39:00,
2013-01-14 09:44:00,36.5,7.3,30.22,WNW,288,1.0,5.0,29,0.00,,,0.00,VWS V14.01,2013-01-14 16:44:00,
2013-01-14 09:49:00,36.6,6.6,30.22,WNW,288,0.0,4.0,28,0.00,,,0.00,VWS V14.01,2013-01-14 16:49:00,
2013-01-14 09:54:00,36.8,6.8,30.22,West,279,4.0,7.0,28,0.00,,,0.00,VWS V14.01,2013-01-14 16:54:00,
2013-01-14 09:59:00,36.7,6.7,30.22,West,277,3.0,5.0,28,0.00,,,0.00,VWS V14.01,2013-01-14 16:59:00,
2013-01-14 10:04:00,36.8,6.8,30.22,West,271,2.0,6.0,28,0.00,,,0.00,VWS V14.01,2013-01-14 17:04:00,
2013-01-14 10:09:00,37.1,7.0,30.22,West,268,4.0,7.0,28,0.00,,,0.00,VWS V14.01,2013-01-14 17:09:00,
2013-01-14 10:14:00,37.4,7.3,30.22,West,266,0.0,6.0,28,0.00,,,0.00,VWS V14.01,2013-01-14 17:14:00,
2013-01-14 10:19:00,37.8,7.6,30.22,West,262,0.0,6.0,28,0.00,,,0.00,VWS V14.01,2013-01-14 17:19:00,
2013-01-14 10:24:00,38.1,7.1,30.22,WSW,254,6.0,6.0,27,0.00,,,0.00,VWS V14.01,2013-01-14 17:24:00,
2013-01-14 10:29:00,38.4,7.3,30.22,WSW,254,2.0,5.0,27,0.00,,,0.00,VWS V14.01,2013-01-14 17:29:00,
2013-01-14 10:34:00,38.5,7.4,30.22,WSW,252,5.0,7.0,27,0.00,,,0.00,VWS V14.01,2013-01-14 17:34:00,
2013-01-14 10:39:00,38.8,6.9,30.22,WSW,252,3.0,3.0,26,0.00,,,0.00,VWS V14.01,2013-01-14 17:39:00,
2013-01-14 10:44:00,39.1,7.9,30.22,WSW,250,1.0,3.0,27,0.00,,,0.00,VWS V14.01,2013-01-14 17:44:00,
2013-01-14 10:49:00,39.0,7.0,30.22,WSW,244,1.0,8.0,26,0.00,,,0.00,VWS V14.01,2013-01-14 17:49:00,
2013-01-14 10:54:00,39.0,7.0,30.21,WSW,244,3.0,5.0,26,0.00,,,0.00,VWS V14.01,2013-01-14 17:54:00,
2013-01-14 10:59:00,39.4,7.4,30.21,WSW,242,2.0,7.0,26,0.00,,,0.00,VWS V14.01,2013-01-14 17:59:00,
2013-01-14 11:04:00,39.8,7.7,30.21,WSW,241,1.0,6.0,26,0.00,,,0.00,VWS V14.01,2013-01-14 18:04:00,
2013-01-14 11:09:00,40.0,7.0,30.21,SW,219,5.0,8.0,25,0.00,,,0.00,VWS V14.01,2013-01-14 18:09:00,
2013-01-14 11:14:00,40.0,7.0,30.21,SW,215,1.0,10.0,25,0.00,,,0.00,VWS V14.01,2013-01-14 18:14:00,
2013-01-14 11:19:00,40.0,7.0,30.21,SSW,210,5.0,7.0,25,0.00,,,0.00,VWS V14.01,2013-01-14 18:19:00,
2013-01-14 11:24:00,40.1,7.1,30.20,SSW,207,0.0,9.0,25,0.00,,,0.00,VWS V14.01,2013-01-14 18:24:00,
2013-01-14 11:29:00,40.3,7.3,30.20,SSW,207,5.0,7.0,25,0.00,,,0.00,VWS V14.01,2013-01-14 18:29:00,
2013-01-14 11:34:00,40.6,7.6,30.20,SSW,207,3.0,5.0,25,0.00,,,0.00,VWS V14.01,2013-01-14 18:34:00,
2013-01-14 11:39:00,40.8,6.8,30.20,SSW,207,1.0,7.0,24,0.00,,,0.00,VWS V14.01,2013-01-14 18:39:00,
2013-01-14 11:44:00,40.9,6.0,30.20,SSW,208,7.0,9.0,23,0.00,,,0.00,VWS V14.01,2013-01-14 18:44:00,
2013-01-14 11:49:00,40.7,6.7,30.19,SSW,208,0.0,8.0,24,0.00,,,0.00,VWS V14.01,2013-01-14 18:49:00,
2013-01-14 11:54:00,40.8,6.8,30.19,SSW,208,6.0,8.0,24,0.00,,,0.00,VWS V14.01,2013-01-14 18:54:00,
2013-01-14 11:59:00,40.9,6.0,30.19,SSW,211,2.0,8.0,23,0.00,,,0.00,VWS V14.01,2013-01-14 18:59:00,
2013-01-14 12:04:00,41.1,6.1,30.19,SSW,213,6.0,6.0,23,0.00,,,0.00,VWS V14.01,2013-01-14 19:04:00,
2013-01-14 12:09:00,41.0,6.1,30.19,SSW,213,1.0,7.0,23,0.00,,,0.00,VWS V14.01,2013-01-14 19:09:00,
2013-01-14 12:14:00,41.0,6.1,30.18,WSW,238,4.0,8.0,23,0.00,,,0.00,VWS V14.01,2013-01-14 19:14:00,
2013-01-14 12:19:00,41.2,5.2,30.18,SSW,212,2.0,9.0,22,0.00,,,0.00,VWS V14.01,2013-01-14 19:19:00,
2013-01-14 12:24:00,41.4,5.4,30.18,SSW,213,4.0,7.0,22,0.00,,,0.00,VWS V14.01,2013-01-14 19:24:00,
2013-01-14 12:29:00,41.5,5.5,30.18,SSW,212,4.0,8.0,22,0.00,,,0.00,VWS V14.01,2013-01-14 19:29:00,
2013-01-14 12:34:00,41.4,4.4,30.18,SW,219,0.0,7.0,21,0.00,,,0.00,VWS V14.01,2013-01-14 19:34:00,
2013-01-14 12:39:00,41.1,4.2,30.18,WSW,246,2.0,10.0,21,0.00,,,0.00,VWS V14.01,2013-01-14 19:39:00,
2013-01-14 12:44:00,40.7,4.8,30.17,SW,214,3.0,7.0,22,0.00,,,0.00,VWS V14.01,2013-01-14 19:44:00,
2013-01-14 12:49:00,40.5,4.7,30.17,SW,214,1.0,6.0,22,0.00,,,0.00,VWS V14.01,2013-01-14 19:49:00,
2013-01-14 12:54:00,40.6,4.7,30.17,SW,223,4.0,7.0,22,0.00,,,0.00,VWS V14.01,2013-01-14 19:54:00,
2013-01-14 12:59:00,41.2,5.2,30.17,SSW,209,0.0,7.0,22,0.00,,,0.00,VWS V14.01,2013-01-14 19:59:00,
2013-01-14 13:04:00,41.6,4.6,30.17,SSW,212,2.0,6.0,21,0.00,,,0.00,VWS V14.01,2013-01-14 20:04:00,
2013-01-14 13:09:00,41.9,3.8,30.17,SSW,208,7.0,13.0,20,0.00,,,0.00,VWS V14.01,2013-01-14 20:09:00,
2013-01-14 13:14:00,41.9,3.8,30.17,SSW,204,1.0,11.0,20,0.00,,,0.00,VWS V14.01,2013-01-14 20:14:00,
2013-01-14 13:19:00,42.1,3.9,30.16,SSW,196,5.0,8.0,20,0.00,,,0.00,VWS V14.01,2013-01-14 20:19:00,
2013-01-14 13:24:00,42.1,3.9,30.16,SW,222,3.0,8.0,20,0.00,,,0.00,VWS V14.01,2013-01-14 20:24:00,
2013-01-14 13:29:00,41.9,3.8,30.17,SW,234,6.0,7.0,20,0.00,,,0.00,VWS V14.01,2013-01-14 20:29:00,
2013-01-14 13:34:00,41.7,5.7,30.16,WNW,292,4.0,8.0,22,0.00,,,0.00,VWS V14.01,2013-01-14 20:34:00,
2013-01-14 13:39:00,41.3,4.3,30.16,West,274,0.0,6.0,21,0.00,,,0.00,VWS V14.01,2013-01-14 20:39:00,
2013-01-14 13:44:00,41.0,5.1,30.16,WNW,297,3.0,6.0,22,0.00,,,0.00,VWS V14.01,2013-01-14 20:44:00,
2013-01-14 13:50:00,40.6,5.7,30.16,West,275,1.0,10.0,23,0.00,,,0.00,VWS V14.01,2013-01-14 20:50:00,
2013-01-14 13:55:00,40.1,6.2,30.16,NW,325,0.0,9.0,24,0.00,,,0.00,VWS V14.01,2013-01-14 20:55:00,
2013-01-14 14:00:00,39.9,6.9,30.16,West,273,5.0,8.0,25,0.00,,,0.00,VWS V14.01,2013-01-14 21:00:00,
2013-01-14 14:05:00,39.9,6.9,30.16,WSW,242,2.0,11.0,25,0.00,,,0.00,VWS V14.01,2013-01-14 21:05:00,
2013-01-14 14:10:00,40.3,7.3,30.17,SW,215,8.0,13.0,25,0.00,,,0.00,VWS V14.01,2013-01-14 21:10:00,
2013-01-14 14:15:00,40.6,7.6,30.17,South,190,6.0,9.0,25,0.00,,,0.00,VWS V14.01,2013-01-14 21:15:00,
2013-01-14 14:20:00,41.0,7.0,30.17,SSW,209,5.0,9.0,24,0.00,,,0.00,VWS V14.01,2013-01-14 21:20:00,
2013-01-14 14:25:00,41.1,7.1,30.17,SSW,205,7.0,11.0,24,0.00,,,0.00,VWS V14.01,2013-01-14 21:25:00,
2013-01-14 14:30:00,41.3,7.2,30.17,West,268,2.0,10.0,24,0.00,,,0.00,VWS V14.01,2013-01-14 21:30:00,
2013-01-14 14:35:00,41.3,6.3,30.17,SSW,213,5.0,10.0,23,0.00,,,0.00,VWS V14.01,2013-01-14 21:35:00,
2013-01-14 14:40:00,41.2,6.2,30.17,SW,227,3.0,11.0,23,0.00,,,0.00,VWS V14.01,2013-01-14 21:40:00,
2013-01-14 14:45:00,41.1,6.1,30.17,SSW,207,6.0,14.0,23,0.00,,,0.00,VWS V14.01,2013-01-14 21:45:00,
2013-01-14 14:50:00,40.7,5.8,30.17,South,189,6.0,14.0,23,0.00,,,0.00,VWS V14.01,2013-01-14 21:50:00,
2013-01-14 14:55:00,40.8,5.9,30.18,SW,226,3.0,10.0,23,0.00,,,0.00,VWS V14.01,2013-01-14 21:55:00,
2013-01-14 15:00:00,40.7,5.8,30.18,WNW,286,8.0,11.0,23,0.00,,,0.00,VWS V14.01,2013-01-14 22:00:00,
2013-01-14 15:05:00,40.5,5.6,30.18,West,270,4.0,11.0,23,0.00,,,0.00,VWS V14.01,2013-01-14 22:05:00,
2013-01-14 15:10:00,40.2,5.4,30.18,SW,228,5.0,11.0,23,0.00,,,0.00,VWS V14.01,2013-01-14 22:10:00,
2013-01-14 15:15:00,40.2,5.4,30.18,WNW,286,2.0,6.0,23,0.00,,,0.00,VWS V14.01,2013-01-14 22:15:00,
2013-01-14 15:20:00,40.3,5.5,30.18,SSW,213,1.0,6.0,23,0.00,,,0.00,VWS V14.01,2013-01-14 22:20:00,
2013-01-14 15:25:00,40.4,5.5,30.18,SW,215,3.0,8.0,23,0.00,,,0.00,VWS V14.01,2013-01-14 22:25:00,
2013-01-14 15:30:00,40.5,5.6,30.18,NW,304,12.0,12.0,23,0.00,,,0.00,VWS V14.01,2013-01-14 22:30:00,
2013-01-14 15:35:00,40.3,4.5,30.19,West,271,4.0,11.0,22,0.00,,,0.00,VWS V14.01,2013-01-14 22:35:00,
2013-01-14 15:40:00,40.1,4.3,30.19,WSW,241,6.0,12.0,22,0.00,,,0.00,VWS V14.01,2013-01-14 22:40:00,
2013-01-14 15:45:00,40.0,5.2,30.19,West,261,7.0,8.0,23,0.00,,,0.00,VWS V14.01,2013-01-14 22:45:00,
2013-01-14 15:50:00,40.0,5.2,30.19,West,259,2.0,10.0,23,0.00,,,0.00,VWS V14.01,2013-01-14 22:50:00,
2013-01-14 15:55:00,40.0,5.2,30.20,West,278,4.0,6.0,23,0.00,,,0.00,VWS V14.01,2013-01-14 22:55:00,
2013-01-14 16:00:00,40.1,4.3,30.20,SW,217,7.0,12.0,22,0.00,,,0.00,VWS V14.01,2013-01-14 23:00:00,
2013-01-14 16:05:00,39.8,5.0,30.20,SW,235,4.0,10.0,23,0.00,,,0.00,VWS V14.01,2013-01-14 23:05:00,
2013-01-14 16:10:00,39.7,4.0,30.20,West,272,6.0,10.0,22,0.00,,,0.00,VWS V14.01,2013-01-14 23:10:00,
2013-01-14 16:15:00,39.3,3.7,30.20,SSW,212,3.0,11.0,22,0.00,,,0.00,VWS V14.01,2013-01-14 23:15:00,
2013-01-14 16:20:00,39.0,3.4,30.20,WNW,298,2.0,8.0,22,0.00,,,0.00,VWS V14.01,2013-01-14 23:20:00,
2013-01-14 16:25:00,39.0,3.4,30.20,West,276,2.0,7.0,22,0.00,,,0.00,VWS V14.01,2013-01-14 23:25:00,
2013-01-14 16:30:00,39.0,3.4,30.20,West,261,2.0,9.0,22,0.00,,,0.00,VWS V14.01,2013-01-14 23:30:00,
2013-01-14 16:35:00,38.9,3.3,30.20,West,271,3.0,6.0,22,0.00,,,0.00,VWS V14.01,2013-01-14 23:35:00,
2013-01-14 16:40:00,38.7,4.1,30.20,West,261,6.0,8.0,23,0.00,,,0.00,VWS V14.01,2013-01-14 23:40:00,
2013-01-14 16:45:00,38.5,3.9,30.21,NW,304,4.0,9.0,23,0.00,,,0.00,VWS V14.01,2013-01-14 23:45:00,
2013-01-14 16:50:00,38.2,3.7,30.21,WNW,298,5.0,6.0,23,0.00,,,0.00,VWS V14.01,2013-01-14 23:50:00,
2013-01-14 16:56:00,37.8,3.3,30.21,WSW,251,6.0,9.0,23,0.00,,,0.00,VWS V14.01,2013-01-14 23:56:00,
2013-01-14 17:05:00,37.0,4.5,30.22,NNW,340,6.0,8.0,25,0.00,,,0.00,VWS V14.01,2013-01-15 00:05:00,
2013-01-14 17:10:00,36.3,3.9,30.22,NW,319,6.0,11.0,25,0.00,,,0.00,VWS V14.01,2013-01-15 00:10:00,
2013-01-14 17:15:00,35.6,4.1,30.22,NW,319,7.0,14.0,26,0.00,,,0.00,VWS V14.01,2013-01-15 00:15:00,
2013-01-14 17:20:00,35.2,4.6,30.23,NW,326,5.0,11.0,27,0.00,,,0.00,VWS V14.01,2013-01-15 00:20:00,
2013-01-14 17:25:00,34.8,4.2,30.23,NW,315,9.0,13.0,27,0.00,,,0.00,VWS V14.01,2013-01-15 00:25:00,
2013-01-14 17:30:00,34.1,4.4,30.23,NW,307,6.0,15.0,28,0.00,,,0.00,VWS V14.01,2013-01-15 00:30:00,
2013-01-14 17:35:00,33.4,4.6,30.23,NNW,331,5.0,13.0,29,0.00,,,0.00,VWS V14.01,2013-01-15 00:35:00,
2013-01-14 17:40:00,32.9,4.1,30.23,NW,305,4.0,10.0,29,0.00,,,0.00,VWS V14.01,2013-01-15 00:40:00,
2013-01-14 17:45:00,32.5,3.8,30.24,NNW,347,9.0,10.0,29,0.00,,,0.00,VWS V14.01,2013-01-15 00:45:00,
2013-01-14 17:50:00,32.3,3.6,30.24,NNW,332,7.0,10.0,29,0.00,,,0.00,VWS V14.01,2013-01-15 00:50:00,
2013-01-14 17:55:00,31.9,3.3,30.24,NW,315,7.0,12.0,29,0.00,,,0.00,VWS V14.01,2013-01-15 00:55:00,
2013-01-14 18:00:00,31.7,3.1,30.24,NW,304,7.0,12.0,29,0.00,,,0.00,VWS V14.01,2013-01-15 01:00:00,
2013-01-14 18:05:00,31.4,3.6,30.25,NNW,333,6.0,10.0,30,0.00,,,0.00,VWS V14.01,2013-01-15 01:05:00,
2013-01-14 18:10:00,31.1,3.3,30.25,NW,317,6.0,12.0,30,0.00,,,0.00,VWS V14.01,2013-01-15 01:10:00,
2013-01-14 18:15:00,30.8,3.8,30.25,North,360,9.0,10.0,31,0.00,,,0.00,VWS V14.01,2013-01-15 01:15:00,
2013-01-14 18:20:00,30.6,3.6,30.26,NW,322,4.0,10.0,31,0.00,,,0.00,VWS V14.01,2013-01-15 01:20:00,
2013-01-14 18:25:00,30.5,3.5,30.26,NW,320,5.0,7.0,31,0.00,,,0.00,VWS V14.01,2013-01-15 01:25:00,
2013-01-14 18:30:00,30.2,3.2,30.26,NNW,338,7.0,9.0,31,0.00,,,0.00,VWS V14.01,2013-01-15 01:30:00,
2013-01-14 18:35:00,30.0,3.7,30.26,North,349,2.0,7.0,32,0.00,,,0.00,VWS V14.01,2013-01-15 01:35:00,
2013-01-14 18:40:00,29.7,4.1,30.26,NNE,29,2.0,5.0,33,0.00,,,0.00,VWS V14.01,2013-01-15 01:40:00,
2013-01-14 18:45:00,29.3,4.4,30.26,NNE,22,1.0,5.0,34,0.00,,,0.00,VWS V14.01,2013-01-15 01:45:00,
2013-01-14 18:50:00,28.9,4.1,30.27,NNE,26,1.0,5.0,34,0.00,,,0.00,VWS V14.01,2013-01-15 01:50:00,
2013-01-14 18:55:00,28.7,4.5,30.27,NNE,28,1.0,3.0,35,0.00,,,0.00,VWS V14.01,2013-01-15 01:55:00,
2013-01-14 19:00:00,28.3,4.8,30.27,NE,38,1.0,3.0,36,0.00,,,0.00,VWS V14.01,2013-01-15 02:00:00,
2013-01-14 19:05:00,27.9,4.4,30.27,NE,46,1.0,3.0,36,0.00,,,0.00,VWS V14.01,2013-01-15 02:05:00,
2013-01-14 19:10:00,27.6,4.8,30.27,NE,43,2.0,4.0,37,0.00,,,0.00,VWS V14.01,2013-01-15 02:10:00,
2013-01-14 19:15:00,27.3,5.1,30.27,NE,43,0.0,3.0,38,0.00,,,0.00,VWS V14.01,2013-01-15 02:15:00,
2013-01-14 19:20:00,27.0,4.8,30.27,NE,43,1.0,3.0,38,0.00,,,0.00,VWS V14.01,2013-01-15 02:20:00,
2013-01-14 19:25:00,26.6,5.0,30.27,NE,40,1.0,4.0,39,0.00,,,0.00,VWS V14.01,2013-01-15 02:25:00,
2013-01-14 19:30:00,26.4,4.8,30.28,NNE,29,4.0,6.0,39,0.00,,,0.00,VWS V14.01,2013-01-15 02:30:00,
2013-01-14 19:35:00,26.2,4.6,30.27,NNE,23,4.0,5.0,39,0.00,,,0.00,VWS V14.01,2013-01-15 02:35:00,
2013-01-14 19:40:00,26.2,4.6,30.28,NNW,347,2.0,7.0,39,0.00,,,0.00,VWS V14.01,2013-01-15 02:40:00,
2013-01-14 19:45:00,26.3,4.2,30.28,NNW,328,2.0,4.0,38,0.00,,,0.00,VWS V14.01,2013-01-15 02:45:00,
2013-01-14 19:50:00,26.4,4.2,30.28,NNW,329,3.0,4.0,38,0.00,,,0.00,VWS V14.01,2013-01-15 02:50:00,
2013-01-14 19:55:00,26.4,4.2,30.28,NNW,329,1.0,4.0,38,0.00,,,0.00,VWS V14.01,2013-01-15 02:55:00,
2013-01-14 20:00:00,26.2,4.6,30.28,NNW,332,1.0,3.0,39,0.00,,,0.00,VWS V14.01,2013-01-15 03:00:00,
2013-01-14 20:05:00,26.0,5.0,30.28,NNW,332,2.0,4.0,40,0.00,,,0.00,VWS V14.01,2013-01-15 03:05:00,
2013-01-14 20:10:00,25.8,4.8,30.28,NNW,332,1.0,3.0,40,0.00,,,0.00,VWS V14.01,2013-01-15 03:10:00,
2013-01-14 20:15:00,25.8,4.3,30.29,NNW,333,2.0,3.0,39,0.00,,,0.00,VWS V14.01,2013-01-15 03:15:00,
2013-01-14 20:20:00,25.8,4.3,30.29,NNW,333,2.0,3.0,39,0.00,,,0.00,VWS V14.01,2013-01-15 03:20:00,
2013-01-14 20:25:00,25.8,4.3,30.29,NNW,333,0.0,4.0,39,0.00,,,0.00,VWS V14.01,2013-01-15 03:25:00,
2013-01-14 20:30:00,25.8,3.7,30.29,NNW,333,2.0,4.0,38,0.00,,,0.00,VWS V14.01,2013-01-15 03:30:00,
2013-01-14 20:35:00,26.0,3.9,30.29,NNW,333,0.0,3.0,38,0.00,,,0.00,VWS V14.01,2013-01-15 03:35:00,
2013-01-14 20:40:00,25.9,4.4,30.29,NNW,333,1.0,3.0,39,0.00,,,0.00,VWS V14.01,2013-01-15 03:40:00,
2013-01-14 20:45:00,25.8,4.3,30.30,NNW,333,0.0,2.0,39,0.00,,,0.00,VWS V14.01,2013-01-15 03:45:00,
2013-01-14 20:50:00,25.6,4.1,30.30,NNW,333,2.0,3.0,39,0.00,,,0.00,VWS V14.01,2013-01-15 03:50:00,
2013-01-14 20:55:00,25.6,4.6,30.30,NNW,333,1.0,4.0,40,0.00,,,0.00,VWS V14.01,2013-01-15 03:55:00,
2013-01-14 21:00:00,25.6,4.6,30.30,NNW,333,1.0,3.0,40,0.00,,,0.00,VWS V14.01,2013-01-15 04:00:00,
2013-01-14 21:05:00,25.6,4.1,30.30,NNW,333,1.0,3.0,39,0.00,,,0.00,VWS V14.01,2013-01-15 04:05:00,
2013-01-14 21:10:00,25.6,4.1,30.30,NNW,333,1.0,4.0,39,0.00,,,0.00,VWS V14.01,2013-01-15 04:10:00,
2013-01-14 21:16:00,25.5,4.0,30.30,NNW,333,1.0,4.0,39,0.00,,,0.00,VWS V14.01,2013-01-15 04:16:00,
2013-01-14 21:21:00,25.4,4.5,30.30,NNW,333,1.0,3.0,40,0.00,,,0.00,VWS V14.01,2013-01-15 04:21:00,
2013-01-14 21:26:00,25.3,4.4,30.30,NNW,333,3.0,4.0,40,0.00,,,0.00,VWS V14.01,2013-01-15 04:26:00,
2013-01-14 21:31:00,25.1,4.2,30.30,NNW,333,2.0,5.0,40,0.00,,,0.00,VWS V14.01,2013-01-15 04:31:00,
2013-01-14 21:36:00,25.0,3.5,30.30,NNW,333,3.0,5.0,39,0.00,,,0.00,VWS V14.01,2013-01-15 04:36:00,
2013-01-14 21:41:00,25.0,3.5,30.30,NNW,333,3.0,4.0,39,0.00,,,0.00,VWS V14.01,2013-01-15 04:41:00,
2013-01-14 21:46:00,24.9,3.5,30.31,NNW,333,4.0,4.0,39,0.00,,,0.00,VWS V14.01,2013-01-15 04:46:00,
2013-01-14 21:51:00,24.9,4.0,30.30,NNW,333,3.0,4.0,40,0.00,,,0.00,VWS V14.01,2013-01-15 04:51:00,
2013-01-14 21:56:00,24.7,3.3,30.30,NNW,338,3.0,6.0,39,0.00,,,0.00,VWS V14.01,2013-01-15 04:56:00,
2013-01-14 22:01:00,24.8,3.4,30.31,NW,323,2.0,6.0,39,0.00,,,0.00,VWS V14.01,2013-01-15 05:01:00,
2013-01-14 22:06:00,24.7,3.3,30.31,NW,323,1.0,6.0,39,0.00,,,0.00,VWS V14.01,2013-01-15 05:06:00,
2013-01-14 22:11:00,24.5,3.7,30.31,NW,326,1.0,5.0,40,0.00,,,0.00,VWS V14.01,2013-01-15 05:11:00,
2013-01-14 22:16:00,24.4,3.6,30.31,NNW,330,2.0,5.0,40,0.00,,,0.00,VWS V14.01,2013-01-15 05:16:00,
2013-01-14 22:21:00,24.5,3.7,30.31,NNW,333,1.0,1.0,40,0.00,,,0.00,VWS V14.01,2013-01-15 05:21:00,
2013-01-14 22:26:00,24.2,4.4,30.31,NNW,342,3.0,3.0,42,0.00,,,0.00,VWS V14.01,2013-01-15 05:26:00,
2013-01-14 22:31:00,23.8,4.1,30.31,ENE,62,3.0,3.0,42,0.00,,,0.00,VWS V14.01,2013-01-15 05:31:00,
2013-01-14 22:36:00,23.6,3.9,30.31,NE,55,2.0,2.0,42,0.00,,,0.00,VWS V14.01,2013-01-15 05:36:00,
2013-01-14 22:41:00,23.5,4.3,30.31,NE,55,1.0,2.0,43,0.00,,,0.00,VWS V14.01,2013-01-15 05:41:00,
2013-01-14 22:46:00,23.3,4.6,30.31,NE,52,2.0,5.0,44,0.00,,,0.00,VWS V14.01,2013-01-15 05:46:00,
2013-01-14 22:51:00,23.0,4.3,30.31,NE,49,2.0,2.0,44,0.00,,,0.00,VWS V14.01,2013-01-15 05:51:00,
2013-01-14 22:56:00,23.0,4.3,30.31,NE,37,2.0,2.0,44,0.00,,,0.00,VWS V14.01,2013-01-15 05:56:00,
2013-01-14 23:01:00,22.7,4.6,30.31,NNE,20,2.0,2.0,45,0.00,,,0.00,VWS V14.01,2013-01-15 06:01:00,
2013-01-14 23:06:00,22.6,4.9,30.32,North,5,5.0,5.0,46,0.00,,,0.00,VWS V14.01,2013-01-15 06:06:00,
2013-01-14 23:11:00,22.9,4.3,30.31,North,350,4.0,5.0,44,0.00,,,0.00,VWS V14.01,2013-01-15 06:11:00,
2013-01-14 23:16:00,23.4,3.7,30.32,NNW,342,5.0,5.0,42,0.00,,,0.00,VWS V14.01,2013-01-15 06:16:00,
2013-01-14 23:21:00,23.8,3.5,30.32,NNW,331,2.0,4.0,41,0.00,,,0.00,VWS V14.01,2013-01-15 06:21:00,
2013-01-14 23:26:00,23.9,4.2,30.32,NNW,333,3.0,3.0,42,0.00,,,0.00,VWS V14.01,2013-01-15 06:26:00,
2013-01-14 23:31:00,24.0,4.2,30.32,NNW,334,3.0,3.0,42,0.00,,,0.00,VWS V14.01,2013-01-15 06:31:00,
2013-01-14 23:36:00,24.0,4.2,30.32,NNW,335,1.0,3.0,42,0.00,,,0.00,VWS V14.01,2013-01-15 06:36:00,
2013-01-14 23:41:00,23.7,5.0,30.32,NNW,340,1.0,2.0,44,0.00,,,0.00,VWS V14.01,2013-01-15 06:41:00,
2013-01-14 23:46:00,23.1,4.9,30.32,NNW,340,1.0,2.0,45,0.00,,,0.00,VWS V14.01,2013-01-15 06:46:00,
2013-01-14 23:51:00,22.7,5.0,30.31,NNW,340,2.0,2.0,46,0.00,,,0.00,VWS V14.01,2013-01-15 06:51:00,
2013-01-14 23:56:00,22.5,5.3,30.31,NNW,340,4.0,4.0,47,0.00,,,0.00,VWS V14.01,2013-01-15 06:56:00,